createdAt,value
2022-12-26T00:00:32.218Z,98485.38
2022-12-26T00:02:59.180Z,98491.81
2022-12-26T00:05:25.949Z,98479.66
2022-12-26T00:07:52.544Z,98490.38
2022-12-26T00:10:19.446Z,98476.72
2022-12-26T00:12:46.166Z,98480.34
2022-12-26T00:15:12.759Z,98474.50
2022-12-26T00:17:42.495Z,98481.59
2022-12-26T00:20:09.834Z,98487.84
2022-12-26T00:22:36.506Z,98488.09
2022-12-26T00:25:03.350Z,98491.47
2022-12-26T00:27:29.955Z,98483.53
2022-12-26T00:29:56.630Z,98484.50
2022-12-26T00:32:26.294Z,98486.16
2022-12-26T00:34:55.637Z,98483.53
2022-12-26T00:37:22.380Z,98471.97
2022-12-26T00:39:49.023Z,98465.28
2022-12-26T00:42:15.764Z,98459.16
2022-12-26T00:44:42.437Z,98466.94
2022-12-26T00:47:09.154Z,98468.34
2022-12-26T00:50:13.727Z,98468.53
2022-12-26T00:52:22.513Z,98459.44
2022-12-26T00:54:51.689Z,98471.00
2022-12-26T00:57:18.391Z,98478.94
2022-12-26T00:59:45.073Z,98476.97
2022-12-26T01:02:31.771Z,98471.97
2022-12-26T01:04:58.588Z,98468.91
2022-12-26T01:07:27.106Z,98465.28
2022-12-26T01:09:53.851Z,98470.56
2022-12-26T01:12:20.474Z,98466.38
2022-12-26T01:14:47.342Z,98464.56
2022-12-26T01:17:14.185Z,98477.38
2022-12-26T01:19:40.802Z,98471.25
2022-12-26T01:22:07.446Z,98480.03
2022-12-26T01:24:34.395Z,98484.66
2022-12-26T01:27:01.089Z,98484.09
2022-12-26T01:29:27.935Z,98467.22
2022-12-26T01:31:54.708Z,98477.69
2022-12-26T01:34:21.627Z,98473.91
2022-12-26T01:36:48.296Z,98480.34
2022-12-26T01:39:15.819Z,98482.72
2022-12-26T01:41:42.453Z,98482.00
2022-12-26T01:44:46.329Z,98483.69
2022-12-26T01:47:15.483Z,98487.56
2022-12-26T01:49:44.324Z,98482.00
2022-12-26T01:52:29.110Z,98489.25
2022-12-26T01:54:56.653Z,98501.50
2022-12-26T01:57:29.436Z,98507.66
2022-12-26T01:59:58.570Z,98504.16
2022-12-26T02:02:28.515Z,98505.13
2022-12-26T02:05:16.452Z,98506.09
2022-12-26T02:07:46.004Z,98489.25
2022-12-26T02:10:20.631Z,98483.69
2022-12-26T02:12:48.619Z,98481.19
2022-12-26T02:15:17.516Z,98486.34
2022-12-26T02:17:44.939Z,98490.78
2022-12-26T02:21:04.187Z,98490.09
2022-12-26T02:23:49.578Z,98497.59
2022-12-26T02:26:37.629Z,98505.81
2022-12-26T02:29:35.840Z,98505.94
2022-12-26T02:32:21.105Z,98503.97
2022-12-26T02:35:00.626Z,98494.53
2022-12-26T02:37:34.620Z,98486.75
2022-12-26T02:40:11.292Z,98489.00
2022-12-26T02:43:05.970Z,98493.56
2022-12-26T02:46:01.939Z,98503.19
2022-12-26T02:48:31.642Z,98509.63
2022-12-26T02:51:44.756Z,98500.13
2022-12-26T02:54:42.106Z,98499.59
2022-12-26T02:57:35.298Z,98486.50
2022-12-26T03:00:41.195Z,98490.00
2022-12-26T03:03:33.138Z,98498.38
2022-12-26T03:06:31.664Z,98500.84
2022-12-26T03:09:27.232Z,98489.28
2022-12-26T03:12:19.018Z,98485.69
2022-12-26T03:14:54.242Z,98491.25
2022-12-26T03:17:41.575Z,98500.63
2022-12-26T03:20:18.705Z,98520.56
2022-12-26T03:23:14.263Z,98509.84
2022-12-26T03:26:11.602Z,98516.56
2022-12-26T03:28:39.393Z,98517.78
2022-12-26T03:31:11.389Z,98523.09
2022-12-26T03:34:00.816Z,98528.25
2022-12-26T03:36:30.306Z,98521.72
2022-12-26T03:39:49.029Z,98527.16
2022-12-26T03:42:55.679Z,98516.25
2022-12-26T03:46:18.641Z,98516.56
2022-12-26T03:49:14.867Z,98509.75
2022-12-26T03:52:20.338Z,98516.69
2022-12-26T03:55:55.324Z,98511.69
2022-12-26T03:58:50.279Z,98505.03
2022-12-26T04:01:40.307Z,98488.53
2022-12-26T04:04:30.453Z,98496.63
2022-12-26T04:07:27.149Z,98491.06
2022-12-26T04:10:23.636Z,98496.50
2022-12-26T04:13:11.060Z,98502.50
2022-12-26T04:16:09.757Z,98504.03
2022-12-26T04:19:02.706Z,98504.31
2022-12-26T04:22:00.630Z,98513.38
2022-12-26T04:24:51.259Z,98508.66
2022-12-26T04:27:40.810Z,98509.78
2022-12-26T04:30:26.508Z,98513.09
2022-12-26T04:33:15.307Z,98511.97
2022-12-26T04:36:16.713Z,98516.88
2022-12-26T04:39:07.932Z,98537.25
2022-12-26T04:41:55.286Z,98527.78
2022-12-26T04:44:24.413Z,98539.34
2022-12-26T04:46:53.686Z,98537.53
2022-12-26T04:49:38.783Z,98518.41
2022-12-26T04:52:08.635Z,98511.69
2022-12-26T04:54:35.550Z,98512.00
2022-12-26T04:57:02.259Z,98507.53
2022-12-26T04:59:28.963Z,98498.03
2022-12-26T05:02:14.187Z,98485.34
2022-12-26T05:04:59.202Z,98491.91
2022-12-26T05:07:47.881Z,98479.06
2022-12-26T05:10:32.360Z,98481.44
2022-12-26T05:12:58.980Z,98489.09
2022-12-26T05:15:25.787Z,98507.25
2022-12-26T05:18:11.143Z,98499.44
2022-12-26T05:20:58.280Z,98509.50
2022-12-26T05:23:46.332Z,98510.34
2022-12-26T05:26:37.445Z,98512.81
2022-12-26T05:29:04.323Z,98501.94
2022-12-26T05:31:36.031Z,98510.84
2022-12-26T05:34:22.439Z,98514.03
2022-12-26T05:36:53.380Z,98507.50
2022-12-26T05:39:20.144Z,98502.91
2022-12-26T05:41:46.825Z,98523.41
2022-12-26T05:44:13.516Z,98529.28
2022-12-26T05:46:42.525Z,98534.88
2022-12-26T05:49:10.121Z,98538.91
2022-12-26T05:51:36.825Z,98555.66
2022-12-26T05:54:03.883Z,98547.44
2022-12-26T05:56:30.879Z,98536.53
2022-12-26T05:58:59.791Z,98527.63
2022-12-26T06:01:28.507Z,98530.53
2022-12-26T06:03:57.917Z,98536.69
2022-12-26T06:06:25.480Z,98525.53
2022-12-26T06:08:54.457Z,98527.84
2022-12-26T06:11:23.063Z,98529.81
2022-12-26T06:13:49.740Z,98542.22
2022-12-26T06:16:19.016Z,98538.03
2022-12-26T06:18:46.689Z,98546.53
2022-12-26T06:21:16.321Z,98546.31
2022-12-26T06:23:43.802Z,98521.72
2022-12-26T06:26:12.746Z,98528.13
2022-12-26T06:28:41.630Z,98528.13
2022-12-26T06:31:11.343Z,98532.44
2022-12-26T06:33:38.377Z,98533.72
2022-12-26T06:36:09.724Z,98535.72
2022-12-26T06:38:36.436Z,98530.66
2022-12-26T06:41:05.701Z,98515.03
2022-12-26T06:43:32.855Z,98537.47
2022-12-26T06:46:00.883Z,98556.31
2022-12-26T06:48:28.021Z,98558.94
2022-12-26T06:50:55.033Z,98559.09
2022-12-26T06:53:22.868Z,98570.53
2022-12-26T06:55:50.277Z,98560.34
2022-12-26T06:58:17.639Z,98549.63
2022-12-26T07:00:44.456Z,98547.38
2022-12-26T07:03:11.373Z,98551.00
2022-12-26T07:05:38.916Z,98558.53
2022-12-26T07:08:05.793Z,98562.72
2022-12-26T07:10:36.503Z,98575.53
2022-12-26T07:13:03.170Z,98571.91
2022-12-26T07:15:29.847Z,98586.84
2022-12-26T07:17:56.497Z,98582.22
2022-12-26T07:20:23.110Z,98598.81
2022-12-26T07:22:49.769Z,98593.66
2022-12-26T07:25:16.422Z,98609.16
2022-12-26T07:27:43.034Z,98601.34
2022-12-26T07:30:10.458Z,98593.13
2022-12-26T07:32:37.099Z,98585.44
2022-12-26T07:35:03.889Z,98573.88
2022-12-26T07:37:30.527Z,98575.53
2022-12-26T07:39:59.357Z,98582.09
2022-12-26T07:42:26.447Z,98579.72
2022-12-26T07:44:53.082Z,98586.97
2022-12-26T07:47:19.742Z,98600.94
2022-12-26T07:49:47.931Z,98591.72
2022-12-26T07:52:14.610Z,98599.91
2022-12-26T07:54:41.235Z,98592.44
2022-12-26T07:57:47.552Z,98591.13
2022-12-26T07:59:54.528Z,98586.00
2022-12-26T08:02:21.342Z,98585.94
2022-12-26T08:04:48.084Z,98588.31
2022-12-26T08:07:14.787Z,98576.03
2022-12-26T08:09:43.145Z,98574.91
2022-12-26T08:12:09.992Z,98570.31
2022-12-26T08:14:40.717Z,98579.50
2022-12-26T08:17:08.192Z,98586.59
2022-12-26T08:19:34.912Z,98579.22
2022-12-26T08:22:01.528Z,98597.75
2022-12-26T08:24:28.134Z,98585.22
2022-12-26T08:26:54.819Z,98578.25
2022-12-26T08:29:21.437Z,98572.69
2022-12-26T08:31:48.069Z,98578.25
2022-12-26T08:34:14.711Z,98593.88
2022-12-26T08:36:41.502Z,98607.81
2022-12-26T08:39:08.215Z,98618.69
2022-12-26T08:41:34.892Z,98611.19
2022-12-26T08:44:26.935Z,98613.69
2022-12-26T08:46:48.375Z,98619.84
2022-12-26T08:49:14.997Z,98629.00
2022-12-26T08:51:41.738Z,98613.09
2022-12-26T08:54:08.472Z,98626.81
2022-12-26T08:56:35.170Z,98624.59
2022-12-26T08:59:01.908Z,98623.88
2022-12-26T09:01:31.195Z,98628.22
2022-12-26T09:04:02.108Z,98635.19
2022-12-26T09:06:31.474Z,98634.22
2022-12-26T09:08:59.743Z,98641.75
2022-12-26T09:11:27.083Z,98626.00
2022-12-26T09:13:53.851Z,98619.84
2022-12-26T09:16:23.461Z,98627.13
2022-12-26T09:18:55.720Z,98615.69
2022-12-26T09:21:22.476Z,98614.72
2022-12-26T09:23:49.083Z,98623.34
2022-12-26T09:26:19.694Z,98635.63
2022-12-26T09:28:47.303Z,98672.81
2022-12-26T09:31:16.228Z,98689.75
2022-12-26T09:33:43.232Z,98702.19
2022-12-26T09:36:15.077Z,98723.66
2022-12-26T09:38:44.033Z,98726.63
2022-12-26T09:41:16.566Z,98721.91
2022-12-26T09:43:50.051Z,98722.72
2022-12-26T09:46:40.335Z,98735.72
2022-12-26T09:49:11.513Z,98729.22
2022-12-26T09:51:41.872Z,98730.88
2022-12-26T09:54:18.199Z,98727.78
2022-12-26T09:57:02.407Z,98733.72
2022-12-26T09:59:32.764Z,98710.91
2022-12-26T10:01:59.446Z,98709.22
2022-12-26T10:04:30.229Z,98713.88
2022-12-26T10:07:17.377Z,98711.84
2022-12-26T10:09:55.755Z,98711.75
2022-12-26T10:12:28.488Z,98713.91
2022-12-26T10:15:04.307Z,98745.03
2022-12-26T10:17:47.021Z,98764.50
2022-12-26T10:20:22.450Z,98771.84
2022-12-26T10:22:55.081Z,98773.03
2022-12-26T10:26:00.909Z,98747.78
2022-12-26T10:29:16.886Z,98736.53
2022-12-26T10:31:49.859Z,98739.88
2022-12-26T10:34:35.145Z,98733.28
2022-12-26T10:37:10.170Z,98737.25
2022-12-26T10:39:54.962Z,98733.66
2022-12-26T10:42:37.451Z,98752.25
2022-12-26T10:45:13.112Z,98745.16
2022-12-26T10:47:41.767Z,98745.91
2022-12-26T10:50:23.844Z,98742.41
2022-12-26T10:52:54.158Z,98756.69
2022-12-26T10:55:35.295Z,98756.09
2022-12-26T10:58:09.939Z,98728.38
2022-12-26T11:00:36.577Z,98724.88
2022-12-26T11:03:09.085Z,98723.81
2022-12-26T11:08:51.881Z,98722.56
2022-12-26T11:11:18.471Z,98724.50
2022-12-26T11:14:00.917Z,98729.78
2022-12-26T11:16:38.684Z,98727.63
2022-12-26T11:19:05.565Z,98728.59
2022-12-26T11:21:33.400Z,98720.28
2022-12-26T11:24:09.160Z,98719.44
2022-12-26T11:26:37.093Z,98714.16
2022-12-26T11:29:13.933Z,98710.81
2022-12-26T11:31:43.779Z,98706.94
2022-12-26T11:34:17.316Z,98715.25
2022-12-26T11:36:50.261Z,98701.16
2022-12-26T11:39:38.061Z,98700.44
2022-12-26T11:42:12.700Z,98715.44
2022-12-26T11:44:45.052Z,98712.66
2022-12-26T11:47:17.656Z,98716.38
2022-12-26T11:50:04.155Z,98716.72
2022-12-26T11:52:52.930Z,98716.47
2022-12-26T11:55:22.466Z,98715.25
2022-12-26T11:57:58.869Z,98721.25
2022-12-26T12:00:27.262Z,98717.38
2022-12-26T12:02:54.247Z,98716.88
2022-12-26T12:05:38.517Z,98710.41
2022-12-26T12:08:17.185Z,98713.78
2022-12-26T12:10:56.917Z,98698.88
2022-12-26T12:13:23.453Z,98706.53
2022-12-26T12:16:16.369Z,98696.72
2022-12-26T12:19:07.966Z,98691.25
2022-12-26T12:22:02.118Z,98701.56
2022-12-26T12:24:42.764Z,98690.88
2022-12-26T12:27:34.573Z,98698.56
2022-12-26T12:30:15.664Z,98693.28
2022-12-26T12:33:00.848Z,98690.38
2022-12-26T12:35:57.205Z,98680.50
2022-12-26T12:38:24.692Z,98688.88
2022-12-26T12:41:17.363Z,98682.50
2022-12-26T12:43:55.699Z,98683.06
2022-12-26T12:46:55.204Z,98684.25
2022-12-26T12:50:12.728Z,98679.06
2022-12-26T12:52:57.531Z,98665.84
2022-12-26T12:55:26.993Z,98677.28
2022-12-26T12:57:59.862Z,98669.44
2022-12-26T13:00:34.042Z,98673.66
2022-12-26T13:03:10.493Z,98664.47
2022-12-26T13:06:09.373Z,98666.59
2022-12-26T13:08:42.649Z,98666.34
2022-12-26T13:11:33.104Z,98665.63
2022-12-26T13:14:34.613Z,98672.63
2022-12-26T13:17:06.569Z,98672.09
2022-12-26T13:20:03.188Z,98667.63
2022-12-26T13:23:02.111Z,98652.84
2022-12-26T13:25:43.400Z,98663.75
2022-12-26T13:28:28.003Z,98663.06
2022-12-26T13:30:56.031Z,98655.69
2022-12-26T13:33:23.201Z,98652.06
2022-12-26T13:35:55.295Z,98651.78
2022-12-26T13:38:24.267Z,98646.66
2022-12-26T13:41:18.420Z,98651.78
2022-12-26T13:44:05.371Z,98646.78
2022-12-26T13:46:40.705Z,98649.66
2022-12-26T13:49:27.912Z,98652.47
2022-12-26T13:52:00.407Z,98657.75
2022-12-26T13:54:28.819Z,98663.19
2022-12-26T13:57:10.786Z,98665.22
2022-12-26T13:59:49.087Z,98662.91
2022-12-26T14:02:58.620Z,98660.78
2022-12-26T14:05:39.057Z,98660.94
2022-12-26T14:08:22.034Z,98670.41
2022-12-26T14:11:32.458Z,98661.47
2022-12-26T14:14:32.966Z,98665.91
2022-12-26T14:17:35.072Z,98673.13
2022-12-26T14:20:26.551Z,98678.69
2022-12-26T14:23:11.251Z,98675.59
2022-12-26T14:25:54.158Z,98673.34
2022-12-26T14:28:35.191Z,98676.09
2022-12-26T14:31:07.438Z,98671.00
2022-12-26T14:33:46.856Z,98677.38
2022-12-26T14:36:19.941Z,98679.03
2022-12-26T14:38:52.623Z,98680.22
2022-12-26T14:41:39.118Z,98688.56
2022-12-26T14:44:28.703Z,98683.25
2022-12-26T14:46:59.190Z,98680.06
2022-12-26T14:49:35.423Z,98681.00
2022-12-26T14:52:24.275Z,98675.97
2022-12-26T14:54:55.138Z,98674.56
2022-12-26T14:57:43.862Z,98685.06
2022-12-26T15:00:16.808Z,98682.53
2022-12-26T15:02:48.182Z,98688.34
2022-12-26T15:05:20.894Z,98681.09
2022-12-26T15:08:10.526Z,98673.81
2022-12-26T15:10:55.389Z,98684.75
2022-12-26T15:13:28.124Z,98679.72
2022-12-26T15:16:16.099Z,98682.63
2022-12-26T15:19:14.015Z,98690.31
2022-12-26T15:22:06.106Z,98690.69
2022-12-26T15:28:38.711Z,98687.91
2022-12-26T15:31:17.102Z,98688.88
2022-12-26T15:33:59.914Z,98698.75
2022-12-26T15:36:49.678Z,98698.47
2022-12-26T15:39:28.433Z,98690.81
2022-12-26T15:42:13.272Z,98688.28
2022-12-26T15:44:52.217Z,98688.41
2022-12-26T15:47:23.773Z,98693.97
2022-12-26T15:49:56.633Z,98691.31
2022-12-26T15:53:01.721Z,98686.97
2022-12-26T15:55:46.932Z,98685.31
2022-12-26T15:58:38.591Z,98682.66
2022-12-26T16:01:05.746Z,98678.31
2022-12-26T16:04:03.860Z,98678.59
2022-12-26T16:06:52.134Z,98675.34
2022-12-26T16:09:54.843Z,98682.81
2022-12-26T16:12:21.625Z,98687.25
2022-12-26T16:14:48.895Z,98681.38
2022-12-26T16:17:15.499Z,98666.72
2022-12-26T16:19:52.826Z,98675.66
2022-12-26T16:22:43.883Z,98680.31
2022-12-26T16:25:31.041Z,98678.03
2022-12-26T16:28:00.060Z,98681.44
2022-12-26T16:30:38.240Z,98680.78
2022-12-26T16:33:05.514Z,98692.44
2022-12-26T16:35:35.078Z,98706.84
2022-12-26T16:38:04.111Z,98711.06
2022-12-26T16:40:33.067Z,98706.47
2022-12-26T16:43:24.662Z,98714.28
2022-12-26T16:45:54.710Z,98713.81
2022-12-26T16:48:24.256Z,98714.88
2022-12-26T16:51:00.682Z,98721.63
2022-12-26T16:53:36.857Z,98724.97
2022-12-26T16:56:31.209Z,98734.34
2022-12-26T16:59:22.520Z,98774.22
2022-12-26T17:01:51.604Z,98791.28
2022-12-26T17:04:26.643Z,98793.19
2022-12-26T17:07:01.983Z,98803.59
2022-12-26T17:09:32.039Z,98810.16
2022-12-26T17:12:05.053Z,98808.25
2022-12-26T17:14:38.356Z,98812.47
2022-12-26T17:17:08.733Z,98813.84
2022-12-26T17:19:37.045Z,98824.22
2022-12-26T17:22:31.100Z,98828.38
2022-12-26T17:25:30.383Z,98834.31
2022-12-26T17:28:09.772Z,98824.16
2022-12-26T17:30:41.299Z,98813.00
2022-12-26T17:33:15.532Z,98789.59
2022-12-26T17:36:38.193Z,98780.06
2022-12-26T17:38:32.117Z,98803.91
2022-12-26T17:41:03.962Z,98821.84
2022-12-26T17:43:33.328Z,98832.19
2022-12-26T17:46:00.738Z,98828.94
2022-12-26T17:48:27.776Z,98827.03
2022-12-26T17:50:57.872Z,98844.66
2022-12-26T17:53:40.376Z,98848.22
2022-12-26T17:56:17.884Z,98852.66
2022-12-26T17:58:44.675Z,98853.94
2022-12-26T18:01:15.968Z,98837.91
2022-12-26T18:03:45.820Z,98842.56
2022-12-26T18:06:16.678Z,98846.75
2022-12-26T18:08:44.288Z,98853.50
2022-12-26T18:11:13.208Z,98846.13
2022-12-26T18:13:40.359Z,98836.63
2022-12-26T18:16:07.849Z,98840.75
2022-12-26T18:18:42.837Z,98848.66
2022-12-26T18:21:12.171Z,98857.00
2022-12-26T18:23:39.793Z,98861.53
2022-12-26T18:26:24.308Z,98873.75
2022-12-26T18:28:52.007Z,98863.97
2022-12-26T18:31:19.067Z,98863.22
2022-12-26T18:33:45.802Z,98866.06
2022-12-26T18:36:13.361Z,98861.53
2022-12-26T18:38:40.038Z,98879.97
2022-12-26T18:41:07.344Z,98879.22
2022-12-26T18:43:33.939Z,98876.59
2022-12-26T18:46:00.581Z,98870.59
2022-12-26T18:48:27.345Z,98883.03
2022-12-26T18:50:54.430Z,98882.19
2022-12-26T18:53:21.070Z,98886.63
2022-12-26T18:55:47.758Z,98881.56
2022-12-26T18:58:14.481Z,98882.19
2022-12-26T19:00:41.161Z,98882.00
2022-12-26T19:03:07.871Z,98880.16
2022-12-26T19:05:34.590Z,98886.00
2022-12-26T19:08:02.224Z,98890.31
2022-12-26T19:10:32.229Z,98895.03
2022-12-26T19:13:05.572Z,98897.56
2022-12-26T19:15:34.667Z,98894.00
2022-12-26T19:18:01.532Z,98886.84
2022-12-26T19:20:28.386Z,98901.78
2022-12-26T19:22:55.652Z,98916.53
2022-12-26T19:25:24.666Z,98914.13
2022-12-26T19:27:52.055Z,98940.13
2022-12-26T19:30:20.335Z,98951.91
2022-12-26T19:32:47.177Z,98941.56
2022-12-26T19:35:15.085Z,98939.91
2022-12-26T19:37:41.984Z,98939.69
2022-12-26T19:40:09.790Z,98948.50
2022-12-26T19:42:37.477Z,98964.94
2022-12-26T19:45:09.679Z,98967.44
2022-12-26T19:47:37.131Z,98979.09
2022-12-26T19:50:05.417Z,98978.13
2022-12-26T19:52:32.290Z,99000.13
2022-12-26T19:54:58.927Z,98990.75
2022-12-26T19:57:25.549Z,98994.34
2022-12-26T19:59:52.123Z,98991.53
2022-12-26T20:02:18.940Z,98991.16
2022-12-26T20:04:45.953Z,98997.75
2022-12-26T20:07:12.573Z,99004.13
2022-12-26T20:09:39.368Z,99002.34
2022-12-26T20:12:06.222Z,99005.13
2022-12-26T20:14:32.965Z,99015.75
2022-12-26T20:17:06.157Z,99017.53
2022-12-26T20:19:34.190Z,99028.81
2022-12-26T20:22:00.904Z,99030.34
2022-12-26T20:24:27.514Z,99039.56
2022-12-26T20:26:54.559Z,99038.63
2022-12-26T20:29:21.755Z,99046.81
2022-12-26T20:31:49.434Z,99058.53
2022-12-26T20:34:16.595Z,99059.72
2022-12-26T20:36:43.505Z,99061.25
2022-12-26T20:39:15.782Z,99064.72
2022-12-26T20:41:43.033Z,99072.59
2022-12-26T20:44:14.812Z,99083.56
2022-12-26T20:46:42.654Z,99089.38
2022-12-26T20:49:10.015Z,99098.81
2022-12-26T20:51:38.962Z,99102.63
2022-12-26T20:54:07.783Z,99113.88
2022-12-26T20:56:35.601Z,99113.88
2022-12-26T20:59:03.303Z,99121.97
2022-12-26T21:01:30.137Z,99128.31
2022-12-26T21:03:57.935Z,99118.00
2022-12-26T21:06:30.466Z,99123.63
2022-12-26T21:08:57.796Z,99122.69
2022-12-26T21:11:27.471Z,99128.53
2022-12-26T21:14:00.470Z,99136.94
2022-12-26T21:16:30.268Z,99142.47
2022-12-26T21:18:57.969Z,99159.41
2022-12-26T21:21:27.462Z,99165.78
2022-12-26T21:23:58.550Z,99167.81
2022-12-26T21:26:26.523Z,99171.22
2022-12-26T21:28:58.472Z,99178.81
2022-12-26T21:31:25.608Z,99171.13
2022-12-26T21:33:55.288Z,99186.19
2022-12-26T21:36:22.137Z,99188.75
2022-12-26T21:38:48.777Z,99203.31
2022-12-26T21:41:16.911Z,99203.16
2022-12-26T21:43:43.482Z,99209.25
2022-12-26T21:46:14.213Z,99219.25
2022-12-26T21:48:47.374Z,99230.50
2022-12-26T21:51:19.329Z,99236.44
2022-12-26T21:53:46.907Z,99244.31
2022-12-26T21:56:15.729Z,99248.72
2022-12-26T21:59:01.840Z,99249.75
2022-12-26T22:01:30.203Z,99265.00
2022-12-26T22:04:15.858Z,99275.44
2022-12-26T22:06:43.158Z,99284.38
2022-12-26T22:09:10.909Z,99297.00
2022-12-26T22:11:56.076Z,99305.31
2022-12-26T22:14:23.008Z,99319.84
2022-12-26T22:16:53.956Z,99326.22
2022-12-26T22:19:20.899Z,99321.44
2022-12-26T22:21:47.616Z,99335.81
2022-12-26T22:24:14.988Z,99342.50
2022-12-26T22:26:41.708Z,99357.88
2022-12-26T22:29:08.653Z,99353.09
2022-12-26T22:31:36.942Z,99356.63
2022-12-26T22:34:06.865Z,99359.84
2022-12-26T22:36:34.305Z,99355.69
2022-12-26T22:39:01.099Z,99364.78
2022-12-26T22:41:28.708Z,99367.38
2022-12-26T22:43:55.978Z,99368.34
2022-12-26T22:46:22.845Z,99377.41
2022-12-26T22:48:50.036Z,99376.72
2022-12-26T22:51:18.885Z,99389.31
2022-12-26T22:53:46.019Z,99398.94
2022-12-26T22:56:13.336Z,99400.16
2022-12-26T22:58:39.974Z,99416.09
2022-12-26T23:01:18.440Z,99417.16
2022-12-26T23:03:45.832Z,99420.31
2022-12-26T23:06:30.989Z,99433.59
2022-12-26T23:09:00.024Z,99438.00
2022-12-26T23:11:34.306Z,99432.09
2022-12-26T23:14:03.389Z,99441.03
2022-12-26T23:16:45.344Z,99446.66
2022-12-26T23:20:03.004Z,99451.13
2022-12-26T23:22:29.998Z,99449.94
2022-12-26T23:24:56.683Z,99460.41
2022-12-26T23:27:41.810Z,99473.56
2022-12-26T23:30:18.064Z,99466.69
2022-12-26T23:32:52.459Z,99476.31
2022-12-26T23:35:21.901Z,99475.63
2022-12-26T23:37:48.429Z,99475.03
2022-12-26T23:40:16.460Z,99475.19
2022-12-26T23:42:43.617Z,99474.47
2022-12-26T23:45:11.596Z,99478.06
2022-12-26T23:47:40.129Z,99485.31
2022-12-26T23:50:09.005Z,99481.84
2022-12-26T23:52:36.031Z,99482.75
2022-12-26T23:55:03.105Z,99489.03
2022-12-26T23:57:29.702Z,99495.31
2022-12-26T23:59:56.306Z,99500.53
